Time;durP1;ratioP1;P1;durP2;ratioP2;P2;SDS_P1;SDS_P2;PMS_P1;PMS_P2;Temp;Humidity;BMP_temperature;BMP_pressure;BME280_temperature;BME280_humidity;BME280_pressure;Samples;Min_cycle;Max_cycle;Signal;HPM_P1;HPM_P2
2022/01/27 00:00:41;;;;;;;82.50;32.10;;;4.90;99.90;;;;;;5028110;28;20560;-50
2022/01/27 00:05:33;;;;;;;85.53;33.50;;;4.90;99.90;;;;;;5020215;28;20492;-54
2022/01/27 00:08:12;;;;;;;100.30;33.90;;;5.00;99.90;;;;;;5032441;28;20225;-51
2022/01/27 00:13:13;;;;;;;100.57;32.60;;;5.00;99.90;;;;;;5032548;28;20410;-51
2022/01/27 00:15:40;;;;;;;92.80;32.97;;;5.00;99.90;;;;;;5023167;28;20939;-50
2022/01/27 00:18:17;;;;;;;99.70;34.63;;;5.00;99.90;;;;;;5012154;28;20477;-51
2022/01/27 00:20:47;;;;;;;94.07;34.70;;;5.00;99.90;;;;;;5048486;28;20523;-51
2022/01/27 00:23:13;;;;;;;98.43;34.60;;;5.00;99.90;;;;;;5030647;28;20480;-51
2022/01/27 00:25:39;;;;;;;95.00;34.37;;;5.00;99.90;;;;;;5031546;28;20461;-51
2022/01/27 00:28:05;;;;;;;90.30;32.53;;;5.00;99.90;;;;;;5030850;28;20937;-51
2022/01/27 00:30:32;;;;;;;96.50;35.20;;;5.00;99.90;;;;;;5030814;28;20202;-51
2022/01/27 00:32:58;;;;;;;93.17;34.40;;;5.00;99.90;;;;;;5030100;28;20910;-51
2022/01/27 00:35:23;;;;;;;94.57;32.90;;;5.00;99.90;;;;;;5031466;28;20434;-51
2022/01/27 00:37:49;;;;;;;91.27;35.60;;;5.10;99.90;;;;;;5031223;28;20194;-50
2022/01/27 00:40:15;;;;;;;89.40;34.07;;;5.10;99.90;;;;;;5031274;28;20320;-51
2022/01/27 00:42:41;;;;;;;87.33;35.00;;;5.00;99.90;;;;;;5031086;28;20183;-51
2022/01/27 00:45:07;;;;;;;98.80;36.33;;;5.00;99.90;;;;;;5025133;28;20671;-51
2022/01/27 00:47:33;;;;;;;104.93;37.13;;;5.00;99.90;;;;;;5031289;28;20414;-52
2022/01/27 00:49:58;;;;;;;103.00;36.73;;;5.10;99.90;;;;;;5030176;28;20422;-51
2022/01/27 00:52:32;;;;;;;95.63;35.57;;;5.00;99.90;;;;;;5031022;28;20187;-51
2022/01/27 00:54:58;;;;;;;107.80;36.83;;;5.00;99.90;;;;;;5030634;28;20221;-51
2022/01/27 01:00:10;;;;;;;97.77;36.10;;;5.10;99.90;;;;;;5017229;28;20747;-51
2022/01/27 01:05:19;;;;;;;102.13;34.83;;;5.10;99.90;;;;;;5029010;28;20539;-51
2022/01/27 01:07:49;;;;;;;92.73;35.30;;;5.10;99.90;;;;;;5029408;28;20280;-52
2022/01/27 01:15:45;;;;;;;102.53;38.27;;;5.10;99.90;;;;;;5030129;28;20456;-51
2022/01/27 01:20:56;;;;;;;106.00;36.83;;;5.10;99.90;;;;;;5030243;28;20442;-52
2022/01/27 01:31:49;;;;;;;96.10;36.93;;;5.10;99.90;;;;;;5030008;28;20476;-51
2022/01/27 01:37:18;;;;;;;101.33;38.10;;;5.10;99.90;;;;;;5029375;28;20434;-51
2022/01/27 01:39:35;;;;;;;93.97;36.43;;;5.10;99.90;;;;;;5026924;28;20260;-51
2022/01/27 01:42:06;;;;;;;95.93;37.50;;;5.10;99.90;;;;;;5025845;28;20442;-52
2022/01/27 01:44:32;;;;;;;97.47;40.53;;;5.00;99.90;;;;;;5029451;28;20935;-51
2022/01/27 01:46:58;;;;;;;100.60;37.20;;;5.10;99.90;;;;;;5029906;28;20467;-52
2022/01/27 01:49:26;;;;;;;101.40;40.50;;;5.10;99.90;;;;;;5029674;28;20435;-52
2022/01/27 01:51:56;;;;;;;107.87;37.57;;;5.00;99.90;;;;;;5029458;28;20429;-51
2022/01/27 01:54:22;;;;;;;100.83;38.50;;;5.00;99.90;;;;;;5029036;28;20437;-51
2022/01/27 01:56:48;;;;;;;98.27;40.03;;;5.00;99.90;;;;;;5029800;28;20884;-51
2022/01/27 01:59:14;;;;;;;95.00;38.00;;;5.00;99.90;;;;;;5029404;28;20429;-51
2022/01/27 02:01:40;;;;;;;98.47;37.20;;;5.10;99.90;;;;;;5029539;28;20240;-51
2022/01/27 02:04:09;;;;;;;100.20;38.13;;;5.10;99.90;;;;;;5028768;28;20477;-51
2022/01/27 02:06:41;;;;;;;99.07;37.27;;;5.00;99.90;;;;;;5029136;28;20553;-52
2022/01/27 02:19:53;;;;;;;86.83;34.97;;;5.10;99.90;;;;;;5029225;28;20448;-52
2022/01/27 02:22:20;;;;;;;79.00;31.87;;;5.10;99.90;;;;;;5028965;28;20928;-56
2022/01/27 02:24:46;;;;;;;81.90;32.70;;;5.10;99.90;;;;;;5028754;28;20462;-52
2022/01/27 02:27:13;;;;;;;75.30;31.77;;;5.20;99.90;;;;;;5029123;28;20449;-51
2022/01/27 02:29:40;;;;;;;79.13;32.23;;;5.10;99.90;;;;;;5029146;28;20482;-52
2022/01/27 02:32:07;;;;;;;75.87;30.27;;;5.10;99.90;;;;;;5029180;28;21037;-52
2022/01/27 02:34:34;;;;;;;72.97;32.63;;;5.20;99.90;;;;;;5028908;28;20939;-52
2022/01/27 02:37:00;;;;;;;85.40;31.07;;;5.20;99.90;;;;;;5028424;28;20437;-52
2022/01/27 02:39:26;;;;;;;80.50;33.30;;;5.10;99.90;;;;;;5029218;28;20433;-52
2022/01/27 02:41:57;;;;;;;75.13;32.13;;;5.20;99.90;;;;;;5028834;28;20224;-52
2022/01/27 02:44:32;;;;;;;84.17;32.37;;;5.20;99.90;;;;;;5029159;28;20430;-52
2022/01/27 02:46:58;;;;;;;72.77;30.93;;;5.20;99.90;;;;;;5028993;28;20448;-52
2022/01/27 02:49:24;;;;;;;65.07;29.10;;;5.20;99.90;;;;;;5029027;28;20457;-52
2022/01/27 02:51:50;;;;;;;83.80;32.40;;;5.20;94.90;;;;;;5028793;28;20873;-52
2022/01/27 02:54:16;;;;;;;67.73;29.53;;;5.20;1.00;;;;;;5029055;28;20444;-52
2022/01/27 02:56:46;;;;;;;74.97;30.50;;;5.20;1.00;;;;;;5029042;28;20430;-52
2022/01/27 02:59:13;;;;;;;71.40;29.73;;;5.30;1.00;;;;;;5028844;28;20721;-52
2022/01/27 03:01:38;;;;;;;72.17;31.10;;;5.30;94.50;;;;;;5028596;28;20836;-52
2022/01/27 03:04:04;;;;;;;71.20;30.47;;;5.30;1.00;;;;;;5043425;28;20481;-52
2022/01/27 03:06:29;;;;;;;72.90;31.47;;;5.30;6.90;;;;;;5028223;28;20653;-52
2022/01/27 03:08:55;;;;;;;69.13;28.93;;;5.30;99.90;;;;;;5028848;28;20218;-52
2022/01/27 03:11:35;;;;;;;69.20;29.97;;;5.30;1.00;;;;;;5028318;28;20657;-52
2022/01/27 03:14:01;;;;;;;65.40;27.90;;;5.40;99.90;;;;;;5029046;28;20609;-52
2022/01/27 03:16:26;;;;;;;64.80;27.57;;;5.30;99.90;;;;;;5029095;28;20437;-52
2022/01/27 03:18:52;;;;;;;78.60;30.60;;;5.30;99.90;;;;;;5023922;28;20193;-52
2022/01/27 03:21:17;;;;;;;77.47;29.43;;;5.30;1.00;;;;;;5027592;28;20183;-52
2022/01/27 03:23:43;;;;;;;69.40;30.00;;;5.30;1.00;;;;;;5028841;28;20595;-52
2022/01/27 03:26:09;;;;;;;76.00;30.20;;;5.30;1.00;;;;;;5029089;28;20712;-54
2022/01/27 03:28:34;;;;;;;66.30;28.67;;;5.40;1.00;;;;;;5029009;28;20172;-52
2022/01/27 03:31:00;;;;;;;76.57;29.63;;;5.40;1.00;;;;;;5031461;28;20182;-52
2022/01/27 03:33:25;;;;;;;76.90;30.67;;;5.40;99.90;;;;;;5031911;28;20179;-52
2022/01/27 03:35:51;;;;;;;64.20;27.80;;;5.40;1.00;;;;;;5030664;28;20175;-52
2022/01/27 03:38:16;;;;;;;68.87;30.93;;;5.30;1.00;;;;;;5032010;28;20201;-52
2022/01/27 03:40:42;;;;;;;60.47;27.60;;;5.30;35.60;;;;;;5032083;28;20210;-52
2022/01/27 03:43:09;;;;;;;68.07;29.00;;;5.30;99.90;;;;;;5031917;28;20568;-52
2022/01/27 03:45:35;;;;;;;71.30;29.30;;;5.30;99.90;;;;;;5031522;28;20199;-52
2022/01/27 03:48:01;;;;;;;68.83;28.70;;;5.30;99.90;;;;;;5031977;28;20516;-52
2022/01/27 03:50:27;;;;;;;71.50;31.17;;;5.30;99.90;;;;;;5031890;28;20189;-52
2022/01/27 03:52:53;;;;;;;64.00;28.80;;;5.30;1.00;;;;;;5032273;28;20418;-52
2022/01/27 03:55:18;;;;;;;72.13;30.87;;;5.30;11.10;;;;;;5031479;28;20974;-52
2022/01/27 03:57:44;;;;;;;74.20;29.97;;;5.30;1.00;;;;;;5031232;28;20195;-51
2022/01/27 04:00:11;;;;;;;73.77;31.67;;;5.20;99.90;;;;;;5030492;28;20697;-51
2022/01/27 04:02:40;;;;;;;68.97;30.13;;;5.20;1.00;;;;;;5031027;28;20270;-51
2022/01/27 04:05:07;;;;;;;75.47;33.20;;;5.10;1.00;;;;;;5031158;28;20816;-51
2022/01/27 04:07:33;;;;;;;81.73;32.27;;;5.10;1.00;;;;;;5031287;28;20689;-51
2022/01/27 04:09:58;;;;;;;84.37;32.23;;;5.10;1.00;;;;;;5031491;28;20434;-51
2022/01/27 04:12:24;;;;;;;73.17;30.63;;;5.10;99.90;;;;;;5031732;28;20182;-51
2022/01/27 04:14:49;;;;;;;78.57;30.37;;;5.00;1.00;;;;;;5031730;28;20641;-51
2022/01/27 04:17:15;;;;;;;82.40;31.57;;;5.10;99.90;;;;;;5031567;28;20171;-51
2022/01/27 04:19:40;;;;;;;86.63;32.70;;;5.00;99.90;;;;;;5031623;28;20190;-52
2022/01/27 04:22:06;;;;;;;81.90;32.90;;;5.00;99.90;;;;;;5031453;28;20537;-51
2022/01/27 04:24:31;;;;;;;79.17;31.40;;;5.00;99.90;;;;;;5029736;28;20215;-51
2022/01/27 04:27:05;;;;;;;73.20;30.80;;;5.00;99.90;;;;;;5030869;28;20291;-51
2022/01/27 04:29:34;;;;;;;81.23;32.07;;;5.00;1.00;;;;;;5031007;28;20179;-51
2022/01/27 04:32:01;;;;;;;85.20;32.47;;;5.00;99.90;;;;;;5030719;28;20426;-51
2022/01/27 04:34:28;;;;;;;75.63;33.50;;;4.90;99.90;;;;;;5030954;28;20772;-52
2022/01/27 04:36:55;;;;;;;74.17;33.70;;;4.90;99.90;;;;;;5030271;28;20778;-51
2022/01/27 04:39:38;;;;;;;79.23;33.17;;;4.90;99.90;;;;;;5031090;28;20418;-51
2022/01/27 04:42:20;;;;;;;81.20;32.87;;;4.90;1.00;;;;;;5028507;28;20418;-51
2022/01/27 04:44:56;;;;;;;69.63;31.60;;;4.90;1.00;;;;;;5028777;28;20458;-51
2022/01/27 04:47:29;;;;;;;74.73;33.73;;;4.90;1.00;;;;;;5028389;28;20414;-51
2022/01/27 04:49:56;;;;;;;81.80;32.63;;;4.80;1.00;;;;;;5042379;28;20919;-51
2022/01/27 04:52:22;;;;;;;73.17;33.03;;;4.80;1.00;;;;;;5030571;28;20418;-51
2022/01/27 04:54:58;;;;;;;77.80;32.60;;;4.80;1.00;;;;;;5030544;28;20430;-51
2022/01/27 04:57:27;;;;;;;81.77;32.03;;;4.80;1.00;;;;;;5030928;28;20444;-51
2022/01/27 04:59:52;;;;;;;83.30;33.07;;;4.80;1.00;;;;;;5030424;28;20414;-51
2022/01/27 05:02:28;;;;;;;71.00;31.93;;;4.80;1.00;;;;;;5029132;28;20529;-52
2022/01/27 05:04:53;;;;;;;76.33;32.40;;;4.80;1.00;;;;;;5030245;28;20313;-51
2022/01/27 05:07:19;;;;;;;69.80;31.03;;;4.80;1.00;;;;;;5027631;28;21001;-51
2022/01/27 05:09:53;;;;;;;65.93;28.80;;;4.80;1.00;;;;;;5030048;28;20245;-51
2022/01/27 05:12:42;;;;;;;68.57;29.10;;;4.80;1.00;;;;;;5029668;28;20241;-51
2022/01/27 05:15:08;;;;;;;66.77;28.37;;;4.90;1.00;;;;;;5030678;28;20437;-51
2022/01/27 05:17:33;;;;;;;78.40;30.80;;;4.80;1.00;;;;;;5030464;28;20465;-51
2022/01/27 05:19:59;;;;;;;65.43;30.70;;;4.80;1.00;;;;;;5029833;28;20468;-51
2022/01/27 05:22:24;;;;;;;68.73;29.50;;;4.80;1.00;;;;;;5029987;28;20178;-51
2022/01/27 05:24:50;;;;;;;65.37;29.17;;;4.80;1.00;;;;;;5030773;28;20703;-53
2022/01/27 05:27:17;;;;;;;71.73;29.27;;;4.80;17.50;;;;;;5030471;28;20179;-51
2022/01/27 05:29:42;;;;;;;59.60;28.73;;;4.80;38.00;;;;;;5029764;28;20594;-53
2022/01/27 05:32:08;;;;;;;63.63;27.37;;;4.80;43.80;;;;;;5029927;28;20456;-51
2022/01/27 05:34:34;;;;;;;74.90;29.10;;;4.80;63.30;;;;;;5029816;28;20218;-51
2022/01/27 05:36:59;;;;;;;66.27;27.97;;;4.80;65.20;;;;;;5029164;28;20834;-51
2022/01/27 05:39:25;;;;;;;71.47;28.30;;;4.80;54.30;;;;;;5029987;28;20249;-51
2022/01/27 05:41:50;;;;;;;69.77;27.70;;;4.80;34.20;;;;;;5029779;28;20187;-51
2022/01/27 05:44:16;;;;;;;61.53;27.70;;;4.90;26.70;;;;;;5028253;28;20198;-51
2022/01/27 05:46:42;;;;;;;52.60;26.20;;;4.80;12.20;;;;;;5028558;28;20211;-51
2022/01/27 05:49:08;;;;;;;56.57;25.63;;;4.90;14.70;;;;;;5029137;28;20183;-51
2022/01/27 05:51:33;;;;;;;60.13;27.00;;;4.80;14.10;;;;;;5029286;28;20257;-51
2022/01/27 05:53:59;;;;;;;49.67;24.20;;;4.80;12.40;;;;;;5029536;28;20183;-51
2022/01/27 05:56:25;;;;;;;57.10;24.80;;;4.80;18.80;;;;;;5029466;28;20678;-52
2022/01/27 05:58:50;;;;;;;52.57;24.50;;;4.80;39.40;;;;;;5029149;28;20191;-51
2022/01/27 06:01:16;;;;;;;52.97;24.50;;;4.80;66.80;;;;;;5029024;28;20539;-51
2022/01/27 06:03:42;;;;;;;55.77;25.00;;;4.90;88.70;;;;;;5028813;28;20226;-51
2022/01/27 06:06:07;;;;;;;51.73;23.77;;;4.80;90.40;;;;;;5029212;28;20211;-51
2022/01/27 06:08:33;;;;;;;58.80;24.83;;;4.90;93.50;;;;;;5029148;28;20434;-51
2022/01/27 06:10:59;;;;;;;50.50;24.30;;;4.90;85.50;;;;;;5028610;28;20186;-51
2022/01/27 06:13:25;;;;;;;52.10;23.13;;;4.90;80.00;;;;;;5029045;28;20245;-52
2022/01/27 06:15:51;;;;;;;53.83;24.87;;;4.80;71.40;;;;;;5029145;28;20186;-51
2022/01/27 06:18:17;;;;;;;50.00;23.27;;;4.90;90.80;;;;;;5029247;28;20491;-51
2022/01/27 06:20:44;;;;;;;49.10;23.87;;;4.90;98.90;;;;;;5029083;28;20711;-51
2022/01/27 06:23:10;;;;;;;52.73;23.67;;;4.80;99.90;;;;;;5026797;28;20258;-51
2022/01/27 06:25:36;;;;;;;53.77;24.00;;;4.80;99.90;;;;;;5028943;28;21004;-51
2022/01/27 06:28:02;;;;;;;52.47;22.30;;;4.90;99.90;;;;;;5028726;28;20430;-51
2022/01/27 06:30:27;;;;;;;52.50;21.60;;;4.90;99.90;;;;;;5029189;28;20199;-51
2022/01/27 06:32:53;;;;;;;41.10;20.87;;;4.90;99.90;;;;;;5028605;28;20218;-51
2022/01/27 06:35:18;;;;;;;48.60;21.37;;;4.90;99.90;;;;;;5029433;28;20661;-51
2022/01/27 06:37:46;;;;;;;45.73;22.50;;;4.90;99.90;;;;;;5029226;28;20594;-51
2022/01/27 06:40:14;;;;;;;44.37;20.30;;;4.90;99.90;;;;;;5029148;28;20175;-51
2022/01/27 06:42:40;;;;;;;59.70;22.00;;;4.90;99.90;;;;;;5028620;28;20437;-51
2022/01/27 06:45:07;;;;;;;55.70;23.77;;;4.90;99.90;;;;;;5028919;28;20480;-51
2022/01/27 06:47:33;;;;;;;45.87;21.97;;;4.90;99.90;;;;;;5029344;28;20540;-51
2022/01/27 06:49:58;;;;;;;48.30;22.10;;;4.90;99.90;;;;;;5028597;28;20540;-50
2022/01/27 06:52:27;;;;;;;51.43;23.37;;;4.90;99.90;;;;;;5029024;28;20179;-50
2022/01/27 06:54:54;;;;;;;42.83;22.70;;;4.90;99.90;;;;;;5025889;28;20187;-50
2022/01/27 06:57:20;;;;;;;49.93;21.57;;;4.90;99.90;;;;;;5028818;28;20433;-50
2022/01/27 06:59:46;;;;;;;46.20;21.90;;;4.90;99.90;;;;;;5028561;28;20480;-50
2022/01/27 07:02:11;;;;;;;46.30;21.83;;;4.90;99.90;;;;;;5029107;28;20179;-50
2022/01/27 07:04:37;;;;;;;48.97;22.70;;;4.90;99.90;;;;;;5030616;28;20239;-52
2022/01/27 07:07:02;;;;;;;43.23;21.40;;;4.90;99.90;;;;;;5032417;28;20245;-50
2022/01/27 07:09:28;;;;;;;56.63;23.03;;;4.90;99.90;;;;;;5031725;28;20590;-50
2022/01/27 07:11:53;;;;;;;52.33;22.87;;;5.00;99.90;;;;;;5032852;28;20591;-50
2022/01/27 07:14:19;;;;;;;41.37;20.67;;;4.90;99.90;;;;;;5032218;28;20225;-50
2022/01/27 07:16:45;;;;;;;46.70;21.97;;;5.00;99.90;;;;;;5032368;28;20214;-50
2022/01/27 07:19:10;;;;;;;50.30;21.03;;;5.00;99.90;;;;;;5032070;28;20191;-50
2022/01/27 07:21:36;;;;;;;50.23;22.70;;;5.00;99.90;;;;;;5031410;28;20210;-50
2022/01/27 07:24:02;;;;;;;46.97;21.43;;;4.90;99.90;;;;;;5031739;28;20190;-50
2022/01/27 07:26:27;;;;;;;53.53;23.90;;;4.90;99.90;;;;;;5031464;28;20222;-50
2022/01/27 07:28:54;;;;;;;47.80;22.43;;;4.90;99.90;;;;;;5031712;28;20191;-50
2022/01/27 07:31:20;;;;;;;45.13;21.17;;;5.00;99.90;;;;;;5031662;28;20252;-50
2022/01/27 07:33:48;;;;;;;47.87;21.20;;;4.90;99.90;;;;;;5031527;28;20429;-50
2022/01/27 07:36:18;;;;;;;44.20;20.37;;;5.00;99.90;;;;;;5031352;28;20210;-50
2022/01/27 07:38:44;;;;;;;44.50;20.47;;;4.90;99.90;;;;;;5028882;28;20524;-50
2022/01/27 07:41:13;;;;;;;53.67;22.63;;;5.00;99.90;;;;;;5031967;28;20508;-50
2022/01/27 07:43:40;;;;;;;45.80;20.77;;;5.00;99.90;;;;;;5031128;28;20932;-51
2022/01/27 07:46:11;;;;;;;48.13;21.40;;;4.90;99.90;;;;;;5030265;28;20465;-54
2022/01/27 07:48:37;;;;;;;52.30;21.67;;;5.00;99.90;;;;;;5029970;28;20846;-54
2022/01/27 07:51:03;;;;;;;43.77;19.63;;;5.00;99.90;;;;;;5030096;28;20439;-52
2022/01/27 07:53:29;;;;;;;49.43;21.80;;;5.00;99.90;;;;;;5031187;28;20421;-54
2022/01/27 07:55:56;;;;;;;47.00;21.93;;;5.00;99.90;;;;;;5031794;28;20892;-54
2022/01/27 07:58:21;;;;;;;53.07;22.27;;;5.00;99.90;;;;;;5031531;28;20629;-53
2022/01/27 08:00:47;;;;;;;50.07;20.77;;;5.00;99.90;;;;;;5027990;28;20440;-54
2022/01/27 08:03:13;;;;;;;49.63;21.13;;;5.00;99.90;;;;;;5030951;28;20700;-53
2022/01/27 08:05:38;;;;;;;46.83;20.90;;;5.00;99.90;;;;;;5030902;28;20246;-53
2022/01/27 08:08:04;;;;;;;49.00;21.27;;;5.00;99.90;;;;;;5031010;28;20179;-54
2022/01/27 08:10:36;;;;;;;44.63;19.37;;;5.00;99.90;;;;;;5031345;28;20271;-54
2022/01/27 08:13:06;;;;;;;44.87;19.00;;;5.10;99.90;;;;;;5030638;28;20176;-54
2022/01/27 08:15:32;;;;;;;40.97;19.40;;;5.10;99.90;;;;;;5031129;28;20430;-53
2022/01/27 08:17:59;;;;;;;39.63;18.00;;;5.10;99.90;;;;;;5030894;28;20444;-58
2022/01/27 08:20:24;;;;;;;40.73;19.67;;;5.10;99.90;;;;;;5031345;28;20904;-53
2022/01/27 08:22:52;;;;;;;36.80;18.00;;;5.20;99.90;;;;;;5031094;28;20427;-53
2022/01/27 08:25:19;;;;;;;41.13;17.73;;;5.10;99.90;;;;;;5031327;28;20310;-53
2022/01/27 08:27:47;;;;;;;39.93;18.87;;;5.20;99.90;;;;;;5031842;28;20418;-53
2022/01/27 08:30:16;;;;;;;35.33;17.73;;;5.20;99.90;;;;;;5031201;28;20441;-53
2022/01/27 08:35:16;;;;;;;35.33;17.17;;;5.20;99.90;;;;;;5031376;28;20433;-53
2022/01/27 08:37:41;;;;;;;39.73;17.83;;;5.30;99.90;;;;;;5031600;28;20430;-52
2022/01/27 08:40:09;;;;;;;35.20;15.77;;;5.30;99.90;;;;;;5031237;28;20432;-53
2022/01/27 08:42:35;;;;;;;28.33;15.50;;;5.30;99.90;;;;;;5029609;28;20185;-53
2022/01/27 08:45:00;;;;;;;31.87;15.03;;;5.30;99.90;;;;;;5036743;28;20430;-53
2022/01/27 08:47:27;;;;;;;31.50;16.40;;;5.30;99.90;;;;;;5031622;28;20194;-53
2022/01/27 08:49:52;;;;;;;32.90;15.70;;;5.30;99.90;;;;;;5031340;28;20214;-53
2022/01/27 08:52:18;;;;;;;33.97;15.47;;;5.30;99.90;;;;;;5031442;28;20414;-52
2022/01/27 08:54:43;;;;;;;32.40;15.77;;;5.30;99.90;;;;;;5031381;28;20199;-52
2022/01/27 08:57:11;;;;;;;27.07;14.73;;;5.30;99.90;;;;;;5031364;28;20539;-53
2022/01/27 08:59:36;;;;;;;29.50;15.13;;;5.40;99.90;;;;;;5029971;28;20565;-53
2022/01/27 09:02:02;;;;;;;28.33;14.73;;;5.40;99.90;;;;;;5031363;28;20410;-53
2022/01/27 09:04:28;;;;;;;29.97;14.43;;;5.40;99.90;;;;;;5030388;28;20309;-53
2022/01/27 09:06:53;;;;;;;32.30;16.03;;;5.40;99.90;;;;;;5031105;28;20211;-52
2022/01/27 09:09:19;;;;;;;30.83;15.67;;;5.50;99.90;;;;;;5031015;28;20514;-52
2022/01/27 09:11:46;;;;;;;31.80;15.88;;;5.50;99.90;;;;;;5030351;28;20449;-52
2022/01/27 09:14:13;;;;;;;33.57;15.53;;;5.60;99.90;;;;;;5030595;28;20171;-52
2022/01/27 09:16:40;;;;;;;31.00;14.93;;;5.60;99.90;;;;;;5028521;28;20793;-52
2022/01/27 09:19:06;;;;;;;27.87;13.83;;;5.50;99.90;;;;;;5031121;28;20440;-52
2022/01/27 09:21:42;;;;;;;31.00;15.33;;;5.50;99.90;;;;;;5030897;28;20425;-53
2022/01/27 09:24:07;;;;;;;30.30;14.73;;;5.60;99.90;;;;;;5029272;28;20521;-51
2022/01/27 09:29:15;;;;;;;29.20;14.50;;;5.60;99.90;;;;;;5031420;28;20187;-52
2022/01/27 09:31:41;;;;;;;24.33;12.73;;;5.70;99.90;;;;;;5030700;28;20421;-52
2022/01/27 09:34:06;;;;;;;23.20;12.73;;;5.60;99.90;;;;;;5030457;28;20766;-53
2022/01/27 09:36:32;;;;;;;23.93;13.20;;;5.70;99.90;;;;;;5029763;28;20764;-52
2022/01/27 09:38:58;;;;;;;25.33;12.10;;;5.70;99.90;;;;;;5030375;28;20970;-52
2022/01/27 09:41:25;;;;;;;22.33;11.47;;;5.80;99.90;;;;;;5030509;28;20633;-52
2022/01/27 09:43:53;;;;;;;21.27;10.73;;;5.80;99.90;;;;;;5030240;28;20191;-53
2022/01/27 09:46:21;;;;;;;20.53;10.87;;;5.80;99.90;;;;;;5030301;28;20590;-53
2022/01/27 09:48:48;;;;;;;19.73;11.13;;;5.90;99.90;;;;;;5030411;28;20429;-51
2022/01/27 09:53:55;;;;;;;18.40;10.47;;;5.90;99.90;;;;;;5029689;28;20793;-53
2022/01/27 09:56:21;;;;;;;18.43;9.57;;;5.90;99.90;;;;;;5026524;28;20912;-58
2022/01/27 09:58:47;;;;;;;15.67;9.63;;;6.00;99.90;;;;;;5029818;28;20511;-52
2022/01/27 10:01:13;;;;;;;16.57;9.00;;;6.00;99.90;;;;;;5028946;28;20441;-52
2022/01/27 10:03:59;;;;;;;14.87;9.10;;;6.00;99.90;;;;;;5029893;28;20249;-52
2022/01/27 10:06:30;;;;;;;22.23;10.23;;;6.00;99.90;;;;;;5029648;28;20214;-52
2022/01/27 10:09:26;;;;;;;16.07;9.27;;;6.00;99.90;;;;;;5029721;28;20437;-52
2022/01/27 10:11:52;;;;;;;19.97;8.70;;;6.10;99.90;;;;;;5029837;28;20860;-53
2022/01/27 10:14:32;;;;;;;17.10;8.97;;;6.10;99.90;;;;;;5029246;28;20460;-53
2022/01/27 10:17:01;;;;;;;15.60;9.00;;;6.10;99.90;;;;;;5027819;28;20426;-53
2022/01/27 10:19:27;;;;;;;22.00;10.20;;;6.20;99.90;;;;;;5029332;28;20432;-52
2022/01/27 10:22:01;;;;;;;24.70;9.93;;;6.30;99.90;;;;;;5028858;28;20915;-53
2022/01/27 10:24:29;;;;;;;20.30;10.57;;;6.30;99.90;;;;;;5029375;28;20975;-53
2022/01/27 10:32:43;;;;;;;24.33;10.93;;;6.50;99.90;;;;;;5029122;28;20437;-53
2022/01/27 10:35:10;;;;;;;24.53;11.17;;;6.50;99.90;;;;;;5046914;28;20409;-52
2022/01/27 10:37:54;;;;;;;24.97;11.53;;;6.60;99.90;;;;;;5035220;28;20460;-52
2022/01/27 10:40:35;;;;;;;25.43;12.67;;;6.70;99.90;;;;;;5030377;28;20413;-52
2022/01/27 10:43:07;;;;;;;23.10;10.50;;;6.80;99.90;;;;;;5026174;28;20756;-53
2022/01/27 10:45:33;;;;;;;24.93;11.07;;;6.80;99.90;;;;;;5033180;28;20488;-52
2022/01/27 10:48:18;;;;;;;20.13;11.23;;;6.80;99.90;;;;;;5033220;28;20418;-53
2022/01/27 10:53:21;;;;;;;25.50;10.43;;;6.90;99.90;;;;;;5033383;28;20472;-54
2022/01/27 10:56:03;;;;;;;23.00;10.33;;;6.90;99.90;;;;;;5032314;28;20519;-52
2022/01/27 10:58:28;;;;;;;26.17;11.23;;;7.00;99.90;;;;;;5031915;28;21169;-52
2022/01/27 11:00:58;;;;;;;28.07;11.13;;;7.10;99.90;;;;;;5032935;28;20434;-52
2022/01/27 11:03:25;;;;;;;28.57;11.30;;;7.20;99.90;;;;;;5033175;28;20261;-52
2022/01/27 11:05:51;;;;;;;27.20;11.40;;;7.30;99.90;;;;;;5032551;28;20472;-52
2022/01/27 11:08:19;;;;;;;32.80;11.37;;;7.30;99.90;;;;;;5033599;28;20516;-54
2022/01/27 11:10:48;;;;;;;26.13;11.30;;;7.40;99.90;;;;;;5033188;28;20794;-52
2022/01/27 11:13:16;;;;;;;34.43;11.70;;;7.40;99.90;;;;;;5032808;28;20483;-53
2022/01/27 11:15:42;;;;;;;22.03;10.07;;;7.50;99.90;;;;;;5033177;28;20418;-52
2022/01/27 11:18:09;;;;;;;23.37;9.80;;;7.50;99.90;;;;;;5033026;28;20801;-52
2022/01/27 11:25:55;;;;;;;40.10;9.80;;;7.70;99.90;;;;;;5033148;28;20489;-52
2022/01/27 11:28:21;;;;;;;29.73;8.60;;;7.70;99.90;;;;;;5033053;28;21051;-52
2022/01/27 11:31:24;;;;;;;34.90;8.63;;;7.60;99.90;;;;;;5033126;28;20421;-52
2022/01/27 11:34:04;;;;;;;43.87;9.07;;;7.70;99.90;;;;;;5021348;28;21062;-52
2022/01/27 11:36:30;;;;;;;26.73;8.17;;;7.70;99.90;;;;;;5032643;28;20421;-52
2022/01/27 11:38:57;;;;;;;36.67;8.60;;;7.70;99.90;;;;;;5030414;28;20438;-52
2022/01/27 11:41:39;;;;;;;26.23;7.03;;;7.70;99.90;;;;;;5032798;28;20422;-53
2022/01/27 11:44:28;;;;;;;37.80;7.13;;;7.70;99.90;;;;;;5028982;28;20409;-52
2022/01/27 11:47:13;;;;;;;40.23;6.80;;;7.80;99.90;;;;;;5032291;28;20465;-52
2022/01/27 11:49:57;;;;;;;23.53;5.90;;;7.90;99.90;;;;;;5031725;28;20405;-53
2022/01/27 11:52:28;;;;;;;47.40;6.73;;;7.90;99.90;;;;;;5032817;28;20962;-52
2022/01/27 11:55:19;;;;;;;30.53;5.37;;;8.00;99.90;;;;;;5047805;28;20434;-52
2022/01/27 11:57:45;;;;;;;40.57;6.07;;;8.50;99.90;;;;;;5032141;28;20452;-53
2022/01/27 12:00:30;;;;;;;22.33;5.37;;;9.00;99.90;;;;;;5031967;28;20446;-53
2022/01/27 12:03:02;;;;;;;27.10;5.93;;;9.60;99.90;;;;;;5032329;28;20500;-52
2022/01/27 12:05:30;;;;;;;37.27;5.90;;;9.60;74.00;;;;;;5032167;28;20532;-53
2022/01/27 12:08:17;;;;;;;23.60;5.20;;;9.80;95.40;;;;;;5032084;28;20460;-52
2022/01/27 12:10:58;;;;;;;27.60;4.40;;;10.10;1.00;;;;;;5032231;28;20747;-53
2022/01/27 12:13:25;;;;;;;29.53;5.30;;;10.20;99.90;;;;;;5031882;28;20434;-53
2022/01/27 12:18:56;;;;;;;22.40;5.27;;;11.30;1.00;;;;;;5027515;28;20439;-53
2022/01/27 12:21:32;;;;;;;19.70;5.07;;;11.80;1.00;;;;;;5052020;28;20420;-52
2022/01/27 12:24:15;;;;;;;28.83;5.13;;;11.40;1.00;;;;;;5034607;28;20421;-53
2022/01/27 12:27:01;;;;;;;26.47;5.57;;;10.80;1.00;;;;;;5029548;28;20471;-52
2022/01/27 12:29:41;;;;;;;20.60;4.23;;;10.20;1.00;;;;;;5030813;28;20430;-59
2022/01/27 12:32:10;;;;;;;17.53;4.80;;;9.70;1.00;;;;;;5034199;28;20457;-52
2022/01/27 12:34:37;;;;;;;24.03;3.77;;;9.30;1.00;;;;;;5032050;28;20433;-53
2022/01/27 12:37:10;;;;;;;30.10;4.90;;;9.10;93.70;;;;;;5032297;28;20549;-51
2022/01/27 12:39:42;;;;;;;25.60;4.70;;;9.00;99.90;;;;;;5042399;28;22131;-52
2022/01/27 12:42:13;;;;;;;19.20;4.10;;;8.80;99.90;;;;;;5030936;28;20430;-52
2022/01/27 12:44:42;;;;;;;30.30;4.83;;;8.70;1.00;;;;;;5031043;28;20450;-53
2022/01/27 12:47:11;;;;;;;28.03;4.70;;;8.60;99.90;;;;;;5029524;28;20588;-52
2022/01/27 12:49:45;;;;;;;19.13;4.37;;;8.60;99.90;;;;;;5031388;28;20402;-52
2022/01/27 12:52:15;;;;;;;25.77;4.20;;;8.60;99.90;;;;;;5031276;28;20507;-52
2022/01/27 12:54:41;;;;;;;28.50;4.83;;;8.60;99.90;;;;;;5031334;28;20488;-52
2022/01/27 12:57:09;;;;;;;25.80;7.10;;;8.50;1.00;;;;;;5031049;28;20441;-53
2022/01/27 12:59:41;;;;;;;24.97;4.10;;;8.50;1.00;;;;;;5031257;28;20191;-56
2022/01/27 13:02:08;;;;;;;20.57;3.60;;;9.00;99.90;;;;;;5031280;28;20414;-52
2022/01/27 13:04:35;;;;;;;22.97;4.40;;;9.30;99.90;;;;;;5030375;28;20488;-52
2022/01/27 13:07:02;;;;;;;32.30;4.43;;;9.60;1.00;;;;;;5030388;28;20812;-52
2022/01/27 13:09:29;;;;;;;20.93;3.57;;;9.40;1.00;;;;;;5036092;28;20436;-52
2022/01/27 13:11:58;;;;;;;24.60;4.40;;;9.50;1.00;;;;;;5030044;28;21128;-52
2022/01/27 13:14:24;;;;;;;26.17;4.10;;;9.50;1.00;;;;;;5026415;28;20426;-52
2022/01/27 13:16:56;;;;;;;25.33;3.70;;;9.30;1.00;;;;;;5029854;28;20429;-52
2022/01/27 13:19:43;;;;;;;25.97;4.70;;;9.10;1.00;;;;;;5029817;28;20810;-52
2022/01/27 13:22:15;;;;;;;30.97;3.73;;;8.90;91.00;;;;;;5032178;28;20426;-52
2022/01/27 13:24:48;;;;;;;26.03;3.83;;;8.70;99.90;;;;;;5032958;28;20429;-52
2022/01/27 13:27:14;;;;;;;26.10;4.40;;;8.60;97.70;;;;;;5033993;28;20457;-52
2022/01/27 13:29:44;;;;;;;18.13;4.17;;;8.50;99.90;;;;;;5031465;28;20430;-53
2022/01/27 13:32:11;;;;;;;27.43;3.67;;;8.50;40.70;;;;;;5028082;28;20179;-52
2022/01/27 13:34:42;;;;;;;22.60;3.67;;;8.60;1.00;;;;;;5031625;28;20568;-52
2022/01/27 13:37:09;;;;;;;22.90;3.40;;;8.70;1.00;;;;;;5031870;28;20573;-53
2022/01/27 13:42:13;;;;;;;22.07;4.27;;;9.10;1.00;;;;;;5032333;28;20513;-52
2022/01/27 13:44:56;;;;;;;21.30;4.20;;;9.00;1.00;;;;;;5032280;28;20560;-52
2022/01/27 13:47:33;;;;;;;23.73;4.60;;;8.80;1.00;;;;;;5031800;28;20207;-52
2022/01/27 13:50:08;;;;;;;19.77;4.10;;;8.60;1.00;;;;;;5031896;28;20425;-52
2022/01/27 13:52:42;;;;;;;28.07;4.30;;;8.50;1.00;;;;;;5032885;28;20417;-52
2022/01/27 13:55:11;;;;;;;24.03;3.73;;;8.50;1.00;;;;;;5035817;28;20436;-52